createdAt,value
2024-05-09T00:01:18.777Z,69.53
2024-05-09T00:03:51.348Z,70.89
2024-05-09T00:06:21.095Z,70.72
2024-05-09T00:08:50.913Z,71.41
2024-05-09T00:11:20.873Z,72.43
2024-05-09T00:13:50.801Z,72.79
2024-05-09T00:16:20.530Z,72.77
2024-05-09T00:18:52.940Z,73.50
2024-05-09T00:21:22.639Z,73.31
2024-05-09T00:23:52.399Z,73.83
2024-05-09T00:26:22.186Z,74.26
2024-05-09T00:28:51.933Z,74.13
2024-05-09T00:31:21.644Z,76.29
2024-05-09T00:33:54.097Z,76.67
2024-05-09T00:36:23.929Z,77.33
2024-05-09T00:38:53.613Z,78.66
2024-05-09T00:41:23.354Z,77.67
2024-05-09T00:43:53.125Z,78.17
2024-05-09T00:46:23.485Z,78.39
2024-05-09T00:48:55.831Z,79.07
2024-05-09T00:51:25.712Z,80.80
2024-05-09T00:53:55.650Z,80.56
2024-05-09T00:56:25.627Z,81.16
2024-05-09T00:58:55.819Z,80.68
2024-05-09T01:01:26.569Z,80.43
2024-05-09T01:03:59.306Z,81.73
2024-05-09T01:06:29.225Z,83.86
2024-05-09T01:08:59.000Z,82.12
2024-05-09T01:11:36.077Z,82.52
2024-05-09T01:14:05.829Z,82.46
2024-05-09T01:16:35.831Z,83.39
2024-05-09T01:19:16.441Z,83.44
2024-05-09T01:21:46.519Z,84.61
2024-05-09T01:24:18.816Z,82.53
2024-05-09T01:26:48.524Z,82.92
2024-05-09T01:29:18.313Z,83.16
2024-05-09T01:31:48.694Z,83.11
2024-05-09T01:34:18.450Z,83.72
2024-05-09T01:36:48.098Z,82.52
2024-05-09T01:39:20.416Z,81.58
2024-05-09T01:41:50.187Z,81.27
2024-05-09T01:44:19.985Z,81.58
2024-05-09T01:46:49.797Z,82.11
2024-05-09T01:49:19.760Z,83.28
2024-05-09T01:51:50.457Z,83.08
2024-05-09T01:54:23.147Z,82.83
2024-05-09T01:56:52.805Z,84.11
2024-05-09T01:59:22.889Z,84.01
2024-05-09T02:01:56.886Z,84.93
2024-05-09T02:04:27.809Z,85.23
2024-05-09T02:06:57.665Z,85.27
2024-05-09T02:09:30.000Z,86.89
2024-05-09T02:11:59.818Z,86.33
2024-05-09T02:14:29.706Z,87.02
2024-05-09T02:16:59.474Z,87.26
2024-05-09T02:19:29.462Z,88.41
2024-05-09T02:21:59.187Z,89.49
2024-05-09T02:24:31.481Z,89.14
2024-05-09T02:27:01.303Z,89.41
2024-05-09T02:29:31.298Z,89.00
2024-05-09T02:32:01.411Z,89.71
2024-05-09T02:34:28.722Z,90.77
2024-05-09T02:36:58.427Z,89.79
2024-05-09T02:39:25.525Z,91.63
2024-05-09T02:41:57.842Z,92.86
2024-05-09T02:44:25.039Z,92.05
2024-05-09T02:46:54.839Z,91.76
2024-05-09T02:49:22.061Z,91.36
2024-05-09T02:51:51.822Z,94.20
2024-05-09T02:54:18.977Z,93.70
2024-05-09T02:56:48.850Z,94.43
2024-05-09T02:59:18.739Z,94.25
2024-05-09T03:01:48.682Z,94.43
2024-05-09T03:04:15.946Z,94.39
2024-05-09T03:06:45.889Z,94.60
2024-05-09T03:09:12.907Z,94.44
2024-05-09T03:11:42.669Z,95.29
2024-05-09T03:14:09.907Z,95.83
2024-05-09T03:16:43.010Z,96.68
2024-05-09T03:19:10.649Z,95.83
2024-05-09T03:21:41.765Z,96.75
2024-05-09T03:24:08.844Z,96.39
2024-05-09T03:26:38.513Z,96.74
2024-05-09T03:29:05.744Z,97.29
2024-05-09T03:31:37.854Z,97.48
2024-05-09T03:34:11.278Z,98.57
2024-05-09T03:36:41.574Z,97.99
2024-05-09T03:39:12.206Z,98.27
2024-05-09T03:41:42.035Z,97.70
2024-05-09T03:44:11.835Z,97.95
2024-05-09T03:46:41.942Z,99.31
2024-05-09T03:49:11.700Z,98.45
2024-05-09T03:51:41.517Z,98.89
2024-05-09T03:54:08.550Z,98.23
2024-05-09T03:56:38.388Z,98.86
2024-05-09T03:59:05.595Z,98.26
2024-05-09T04:01:35.507Z,98.87
2024-05-09T04:04:02.691Z,98.23
2024-05-09T04:06:35.036Z,99.28
2024-05-09T04:09:02.221Z,97.69
2024-05-09T04:11:32.120Z,98.88
2024-05-09T04:13:59.170Z,97.91
2024-05-09T04:16:28.916Z,98.87
2024-05-09T04:18:56.227Z,97.82
2024-05-09T04:21:26.003Z,98.19
2024-05-09T04:23:55.688Z,98.46
2024-05-09T04:26:25.407Z,97.48
2024-05-09T04:28:52.609Z,97.58
2024-05-09T04:31:23.696Z,96.80
2024-05-09T04:33:50.976Z,97.91
2024-05-09T04:36:20.766Z,96.17
2024-05-09T04:38:47.895Z,95.85
2024-05-09T04:41:20.319Z,95.76
2024-05-09T04:43:47.450Z,94.43
2024-05-09T04:46:17.645Z,94.98
2024-05-09T04:48:45.117Z,95.24
2024-05-09T04:51:15.175Z,95.32
2024-05-09T04:53:42.474Z,94.82
2024-05-09T04:56:12.397Z,93.66
2024-05-09T04:58:42.087Z,91.79
2024-05-09T05:01:12.467Z,93.36
2024-05-09T05:03:39.708Z,94.30
2024-05-09T05:06:09.642Z,93.11
2024-05-09T05:08:37.849Z,92.16
2024-05-09T05:11:07.867Z,90.97
2024-05-09T05:13:37.893Z,90.78
2024-05-09T05:16:11.718Z,88.55
2024-05-09T05:18:38.966Z,89.84
2024-05-09T05:21:08.878Z,88.94
2024-05-09T05:23:36.352Z,86.79
2024-05-09T05:26:07.820Z,88.03
2024-05-09T05:28:34.936Z,86.29
2024-05-09T05:31:04.587Z,85.90
2024-05-09T05:33:37.032Z,88.09
2024-05-09T05:36:07.362Z,85.76
2024-05-09T05:38:37.222Z,86.02
2024-05-09T05:41:04.640Z,84.40
2024-05-09T05:43:34.352Z,85.91
2024-05-09T05:46:01.451Z,84.96
2024-05-09T05:48:31.639Z,83.12
2024-05-09T05:51:04.289Z,85.52
2024-05-09T05:53:34.801Z,85.56
2024-05-09T05:56:02.179Z,84.66
2024-05-09T05:58:31.913Z,82.12
2024-05-09T06:00:59.522Z,82.21
2024-05-09T06:03:29.445Z,82.13
2024-05-09T06:05:59.284Z,81.94
2024-05-09T06:08:31.859Z,81.60
2024-05-09T06:10:59.178Z,80.53
2024-05-09T06:13:28.847Z,80.48
2024-05-09T06:15:56.066Z,80.86
2024-05-09T06:18:26.015Z,77.95
2024-05-09T06:20:53.465Z,79.31
2024-05-09T06:23:23.254Z,76.38
2024-05-09T06:25:53.074Z,75.64
2024-05-09T06:28:22.854Z,75.59
2024-05-09T06:30:49.948Z,73.67
2024-05-09T06:33:19.791Z,73.08
2024-05-09T06:35:47.060Z,73.84
2024-05-09T06:38:16.864Z,73.92
2024-05-09T06:40:44.711Z,73.64
2024-05-09T06:43:19.406Z,71.90
2024-05-09T06:45:48.193Z,69.33
2024-05-09T06:48:21.250Z,68.67
2024-05-09T06:50:49.182Z,67.99
2024-05-09T06:53:19.760Z,68.63
2024-05-09T06:55:46.902Z,68.67
2024-05-09T06:58:19.360Z,65.81
2024-05-09T07:00:46.472Z,64.23
2024-05-09T07:03:18.619Z,62.93
2024-05-09T07:05:48.171Z,57.32
2024-05-09T07:08:19.496Z,52.70
2024-05-09T07:10:47.000Z,53.06
2024-05-09T07:13:19.515Z,50.22
2024-05-09T07:15:46.619Z,49.94
2024-05-09T07:18:20.071Z,49.33
2024-05-09T07:20:48.754Z,48.69
2024-05-09T07:23:19.457Z,48.49
2024-05-09T07:25:46.877Z,47.77
2024-05-09T07:28:20.027Z,47.56
2024-05-09T07:30:47.426Z,46.71
2024-05-09T07:33:24.037Z,49.03
2024-05-09T07:35:52.116Z,48.39
2024-05-09T07:38:22.120Z,48.98
2024-05-09T07:40:49.581Z,47.50
2024-05-09T07:43:21.985Z,47.02
2024-05-09T07:45:53.539Z,40.54
2024-05-09T07:52:39.202Z,36.06
2024-05-09T07:53:49.326Z,35.35
2024-05-09T07:56:21.863Z,35.02
2024-05-09T07:58:56.308Z,33.51
2024-05-09T08:01:26.456Z,33.47
2024-05-09T08:03:57.075Z,31.78
2024-05-09T08:06:24.674Z,30.27
2024-05-09T08:08:54.405Z,29.31
2024-05-09T08:11:21.636Z,29.60
2024-05-09T08:13:51.342Z,29.36
2024-05-09T08:16:21.297Z,30.67
2024-05-09T08:18:51.637Z,31.00
2024-05-09T08:21:19.467Z,28.34
2024-05-09T08:23:49.171Z,28.98
2024-05-09T08:26:16.279Z,28.62
2024-05-09T08:28:46.001Z,26.67
2024-05-09T08:31:13.201Z,27.16
2024-05-09T08:33:51.103Z,27.32
2024-05-09T08:36:18.319Z,26.10
2024-05-09T08:38:48.052Z,26.05
2024-05-09T08:41:15.421Z,26.33
2024-05-09T08:43:46.426Z,25.64
2024-05-09T08:46:14.372Z,25.70
2024-05-09T08:48:45.715Z,27.05
2024-05-09T08:51:15.978Z,27.49
2024-05-09T08:53:45.669Z,29.19
2024-05-09T08:56:13.292Z,27.04
2024-05-09T08:58:43.831Z,24.94
2024-05-09T09:01:11.230Z,22.08
2024-05-09T09:03:41.289Z,22.51
2024-05-09T09:06:11.195Z,23.47
2024-05-09T09:08:43.816Z,21.43
2024-05-09T09:11:11.139Z,20.08
2024-05-09T09:13:41.280Z,22.37
2024-05-09T09:16:08.531Z,25.76
2024-05-09T09:18:38.445Z,25.58
2024-05-09T09:21:10.289Z,24.15
2024-05-09T09:23:44.307Z,23.38
2024-05-09T09:26:16.102Z,22.85
2024-05-09T09:28:46.356Z,24.25
2024-05-09T09:31:17.878Z,22.28
2024-05-09T09:33:47.987Z,21.16
2024-05-09T09:36:15.279Z,21.07
2024-05-09T09:38:49.399Z,22.45
2024-05-09T09:41:17.707Z,22.19
2024-05-09T09:43:47.430Z,21.24
2024-05-09T09:46:14.916Z,21.19
2024-05-09T09:48:45.623Z,21.50
2024-05-09T09:51:14.049Z,21.35
2024-05-09T09:53:47.593Z,20.09
2024-05-09T09:56:17.295Z,19.22
2024-05-09T09:58:47.007Z,17.96
2024-05-09T10:01:14.222Z,20.20
2024-05-09T10:03:45.480Z,19.89
2024-05-09T10:06:13.207Z,20.91
2024-05-09T10:08:43.029Z,20.50
2024-05-09T10:11:12.924Z,19.08
2024-05-09T10:13:44.211Z,20.02
2024-05-09T10:16:12.383Z,19.37
2024-05-09T10:18:43.242Z,20.37
2024-05-09T10:21:16.899Z,21.75
2024-05-09T10:23:47.099Z,22.37
2024-05-09T10:26:16.748Z,21.37
2024-05-09T10:28:47.020Z,22.34
2024-05-09T10:31:16.095Z,22.96
2024-05-09T10:33:51.536Z,24.72
2024-05-09T10:36:20.927Z,25.46
2024-05-09T10:38:51.664Z,24.64
2024-05-09T10:41:22.171Z,25.20
2024-05-09T10:43:52.643Z,24.95
2024-05-09T10:46:20.232Z,25.68
2024-05-09T10:48:52.473Z,25.58
2024-05-09T10:51:19.896Z,24.65
2024-05-09T10:53:52.588Z,24.01
2024-05-09T10:56:22.376Z,23.33
2024-05-09T10:58:54.725Z,23.91
2024-05-09T11:01:21.981Z,23.62
2024-05-09T11:03:52.638Z,24.20
2024-05-09T11:06:19.851Z,24.63
2024-05-09T11:08:49.849Z,25.83
2024-05-09T11:11:17.111Z,27.91
2024-05-09T11:13:49.496Z,28.86
2024-05-09T11:16:19.288Z,29.20
2024-05-09T11:18:56.576Z,29.03
2024-05-09T11:21:24.291Z,30.10
2024-05-09T11:23:54.457Z,29.98
2024-05-09T11:26:22.336Z,31.44
2024-05-09T11:28:54.709Z,30.03
2024-05-09T11:31:22.000Z,31.15
2024-05-09T11:33:52.003Z,30.70
2024-05-09T11:36:19.328Z,33.32
2024-05-09T11:38:49.110Z,29.49
2024-05-09T11:41:21.932Z,30.27
2024-05-09T11:43:51.663Z,30.56
2024-05-09T11:46:21.613Z,30.29
2024-05-09T11:48:49.055Z,31.05
2024-05-09T11:51:18.779Z,30.50
2024-05-09T11:53:45.886Z,31.07
2024-05-09T11:56:17.331Z,29.59
2024-05-09T11:58:44.478Z,30.94
2024-05-09T12:01:19.903Z,29.90
2024-05-09T12:03:49.351Z,29.45
2024-05-09T12:06:19.153Z,29.37
2024-05-09T12:08:46.339Z,29.88
2024-05-09T12:11:16.458Z,32.19
2024-05-09T12:13:44.046Z,31.63
2024-05-09T12:16:16.894Z,29.52
2024-05-09T12:18:44.168Z,32.45
2024-05-09T12:21:16.974Z,28.66
2024-05-09T12:23:44.028Z,28.95
2024-05-09T12:26:15.882Z,30.96
2024-05-09T12:28:43.094Z,29.53
2024-05-09T12:31:12.880Z,29.92
2024-05-09T12:33:42.726Z,29.87
2024-05-09T12:36:12.513Z,29.56
2024-05-09T12:38:41.016Z,29.32
2024-05-09T12:41:10.853Z,28.78
2024-05-09T12:43:38.024Z,27.08
2024-05-09T12:46:07.938Z,28.62
2024-05-09T12:48:35.299Z,26.65
2024-05-09T12:51:08.213Z,26.36
2024-05-09T12:53:36.423Z,26.95
2024-05-09T12:56:08.811Z,27.47
2024-05-09T12:58:36.613Z,27.74
2024-05-09T13:01:06.827Z,27.72
2024-05-09T13:03:34.112Z,27.56
2024-05-09T13:06:03.982Z,28.58
2024-05-09T13:08:33.705Z,26.66
2024-05-09T13:11:03.515Z,27.20
2024-05-09T13:13:32.966Z,27.37
2024-05-09T13:16:02.843Z,26.08
2024-05-09T13:18:30.266Z,24.47
2024-05-09T13:21:00.124Z,24.21
2024-05-09T13:23:27.223Z,24.80
2024-05-09T13:25:59.603Z,26.45
2024-05-09T13:28:26.963Z,24.99
2024-05-09T13:30:56.731Z,24.57
2024-05-09T13:33:23.942Z,25.62
2024-05-09T13:35:53.744Z,25.13
2024-05-09T13:38:21.369Z,24.38
2024-05-09T13:40:51.529Z,25.61
2024-05-09T13:43:23.176Z,24.21
2024-05-09T13:45:55.132Z,24.60
2024-05-09T13:48:22.315Z,22.33
2024-05-09T13:50:52.266Z,24.58
2024-05-09T13:53:19.459Z,24.86
2024-05-09T13:55:49.240Z,26.38
2024-05-09T13:58:16.693Z,25.82
2024-05-09T14:00:49.661Z,27.36
2024-05-09T14:03:19.275Z,25.33
2024-05-09T14:05:51.539Z,26.44
2024-05-09T14:08:19.809Z,27.58
2024-05-09T14:10:50.304Z,26.07
2024-05-09T14:13:17.833Z,27.43
2024-05-09T14:15:50.806Z,26.74
2024-05-09T14:18:19.199Z,26.66
2024-05-09T14:20:48.971Z,27.47
2024-05-09T14:23:17.797Z,28.13
2024-05-09T14:25:51.296Z,29.85
2024-05-09T14:28:19.822Z,27.62
2024-05-09T14:30:52.332Z,27.52
2024-05-09T14:33:25.410Z,28.30
2024-05-09T14:35:55.564Z,28.45
2024-05-09T14:38:25.290Z,29.87
2024-05-09T14:40:55.347Z,27.66
2024-05-09T14:43:22.704Z,28.60
2024-05-09T14:45:55.853Z,28.92
2024-05-09T14:48:23.209Z,27.23
2024-05-09T14:50:52.934Z,26.17
2024-05-09T14:53:19.971Z,27.65
2024-05-09T14:55:50.072Z,27.10
2024-05-09T14:58:17.515Z,27.88
2024-05-09T15:00:51.197Z,28.01
2024-05-09T15:03:22.556Z,29.18
2024-05-09T15:05:53.234Z,27.25
2024-05-09T15:08:20.520Z,27.40
2024-05-09T15:10:51.016Z,26.15
2024-05-09T15:13:18.665Z,28.36
2024-05-09T15:15:48.767Z,27.45
2024-05-09T15:18:16.488Z,26.90
2024-05-09T15:20:49.302Z,27.71
2024-05-09T15:23:16.642Z,28.19
2024-05-09T15:25:47.259Z,27.97
2024-05-09T15:28:14.712Z,28.39
2024-05-09T15:30:46.566Z,27.59
2024-05-09T15:33:14.597Z,28.55
2024-05-09T15:35:46.609Z,28.07
2024-05-09T15:38:18.256Z,29.16
2024-05-09T15:40:48.487Z,29.91
2024-05-09T15:43:15.745Z,31.43
2024-05-09T15:45:45.508Z,30.27
2024-05-09T15:48:12.751Z,30.35
2024-05-09T15:50:43.051Z,31.04
2024-05-09T15:53:12.054Z,31.18
2024-05-09T15:55:45.284Z,31.00
2024-05-09T15:58:12.816Z,32.03
2024-05-09T16:00:47.139Z,31.99
2024-05-09T16:03:16.048Z,31.73
2024-05-09T16:05:47.176Z,31.44
2024-05-09T16:08:15.161Z,31.79
2024-05-09T16:10:49.210Z,33.03
2024-05-09T16:13:17.340Z,32.08
2024-05-09T16:15:47.875Z,32.33
2024-05-09T16:18:15.144Z,32.70
2024-05-09T16:20:47.458Z,32.98
2024-05-09T16:23:16.946Z,34.03
2024-05-09T16:25:51.385Z,33.68
2024-05-09T16:28:19.163Z,33.72
2024-05-09T16:30:49.049Z,33.89
2024-05-09T16:33:19.357Z,34.21
2024-05-09T16:35:49.590Z,33.90
2024-05-09T16:38:16.833Z,34.08
2024-05-09T16:40:52.305Z,34.70
2024-05-09T16:43:22.325Z,35.07
2024-05-09T16:45:50.539Z,34.66
2024-05-09T16:48:20.515Z,35.71
2024-05-09T16:50:50.016Z,34.59
2024-05-09T16:53:19.680Z,34.38
2024-05-09T16:55:49.774Z,34.64
2024-05-09T16:58:19.948Z,34.52
2024-05-09T17:00:47.246Z,34.66
2024-05-09T17:03:17.280Z,35.75
2024-05-09T17:05:46.414Z,34.66
2024-05-09T17:08:18.264Z,34.24
2024-05-09T17:10:45.860Z,34.90
2024-05-09T17:13:18.747Z,35.67
2024-05-09T17:15:48.934Z,35.84
2024-05-09T17:18:19.205Z,35.66
2024-05-09T17:20:49.172Z,36.21
2024-05-09T17:23:16.543Z,34.09
2024-05-09T17:25:46.892Z,35.21
2024-05-09T17:28:16.822Z,35.40
2024-05-09T17:30:46.629Z,34.74
2024-05-09T17:33:14.011Z,35.09
2024-05-09T17:35:45.790Z,35.05
2024-05-09T17:38:13.154Z,36.08
2024-05-09T17:40:42.898Z,35.92
2024-05-09T17:43:10.964Z,34.81
2024-05-09T17:45:43.827Z,34.01
2024-05-09T17:48:11.910Z,34.13
2024-05-09T17:50:42.517Z,34.41
2024-05-09T17:53:10.377Z,34.38
2024-05-09T17:55:41.187Z,35.01
2024-05-09T17:58:08.880Z,34.42
2024-05-09T18:00:41.659Z,34.14
2024-05-09T18:03:13.500Z,36.01
2024-05-09T18:05:44.995Z,35.20
2024-05-09T18:08:12.900Z,35.62
2024-05-09T18:10:43.297Z,36.39
2024-05-09T18:13:11.374Z,36.38
2024-05-09T18:15:41.671Z,35.78
2024-05-09T18:18:11.921Z,36.28
2024-05-09T18:20:45.170Z,37.37
2024-05-09T18:23:15.745Z,37.93
2024-05-09T18:25:47.190Z,38.31
2024-05-09T18:28:15.141Z,37.31
2024-05-09T18:30:45.196Z,38.13
2024-05-09T18:33:15.356Z,39.28
2024-05-09T18:35:48.780Z,38.92
2024-05-09T18:38:15.933Z,39.70
2024-05-09T18:40:48.510Z,40.32
2024-05-09T18:43:16.754Z,39.55
2024-05-09T18:45:47.359Z,40.29
2024-05-09T18:48:17.433Z,40.51
2024-05-09T18:50:47.358Z,42.05
2024-05-09T18:53:14.607Z,41.77
2024-05-09T18:55:44.755Z,42.21
2024-05-09T18:58:12.080Z,41.74
2024-05-09T19:00:45.207Z,42.41
2024-05-09T19:03:17.005Z,41.67
2024-05-09T19:05:47.352Z,42.28
2024-05-09T19:08:15.450Z,43.45
2024-05-09T19:10:46.245Z,44.49
2024-05-09T19:13:14.523Z,43.82
2024-05-09T19:15:45.069Z,41.97
2024-05-09T19:18:13.243Z,42.80
2024-05-09T19:20:46.685Z,43.21
2024-05-09T19:23:13.694Z,42.76
2024-05-09T19:25:43.597Z,42.52
2024-05-09T19:28:10.782Z,42.54
2024-05-09T19:30:42.578Z,43.04
2024-05-09T19:33:12.444Z,43.10
2024-05-09T19:35:46.060Z,43.25
2024-05-09T19:38:13.215Z,44.15
2024-05-09T19:40:43.069Z,44.07
2024-05-09T19:43:13.382Z,44.30
2024-05-09T19:45:40.582Z,44.19
2024-05-09T19:48:11.025Z,45.03
2024-05-09T19:50:43.094Z,44.88
2024-05-09T19:53:17.507Z,44.17
2024-05-09T19:55:44.579Z,44.84
2024-05-09T19:58:14.440Z,44.11
2024-05-09T20:00:43.522Z,45.35
2024-05-09T20:03:15.753Z,45.84
2024-05-09T20:05:45.539Z,46.09
2024-05-09T20:08:18.934Z,46.44
2024-05-09T20:10:46.110Z,46.86
2024-05-09T20:13:16.005Z,47.04
2024-05-09T20:15:43.142Z,47.23
2024-05-09T20:18:13.102Z,48.03
2024-05-09T20:20:42.925Z,47.10
2024-05-09T20:23:14.936Z,48.01
2024-05-09T20:25:49.597Z,47.68
2024-05-09T20:28:16.796Z,48.45
2024-05-09T20:30:46.574Z,48.68
2024-05-09T20:33:14.303Z,49.14
2024-05-09T20:35:44.064Z,49.32
2024-05-09T20:38:11.161Z,49.66
2024-05-09T20:40:40.959Z,49.20
2024-05-09T20:43:11.092Z,50.13
2024-05-09T20:45:41.194Z,50.62
2024-05-09T20:48:09.473Z,50.35
2024-05-09T20:50:41.796Z,50.88
2024-05-09T20:53:10.887Z,50.78
2024-05-09T20:55:40.965Z,50.92
2024-05-09T20:58:10.895Z,50.72
2024-05-09T21:00:43.950Z,51.54
2024-05-09T21:03:14.975Z,52.79
2024-05-09T21:05:46.786Z,51.96
2024-05-09T21:08:14.533Z,51.76
2024-05-09T21:10:44.378Z,51.78
2024-05-09T21:13:14.347Z,51.87
2024-05-09T21:15:44.187Z,52.13
2024-05-09T21:18:11.619Z,52.33
2024-05-09T21:20:41.294Z,53.04
2024-05-09T21:23:08.447Z,52.08
2024-05-09T21:25:38.171Z,52.56
2024-05-09T21:28:05.922Z,52.63
2024-05-09T21:30:42.434Z,52.35
2024-05-09T21:33:12.765Z,52.60
2024-05-09T21:35:44.517Z,52.60
2024-05-09T21:38:13.802Z,52.82
2024-05-09T21:40:44.225Z,53.66
2024-05-09T21:43:11.711Z,54.07
2024-05-09T21:45:44.311Z,53.57
2024-05-09T21:48:12.680Z,52.76
2024-05-09T21:50:42.758Z,53.57
2024-05-09T21:53:10.299Z,53.46
2024-05-09T21:55:40.159Z,53.56
2024-05-09T21:58:07.386Z,53.31
2024-05-09T22:00:39.387Z,53.41
2024-05-09T22:03:11.031Z,53.55
2024-05-09T22:05:44.139Z,53.88
2024-05-09T22:08:11.580Z,53.75
2024-05-09T22:10:41.267Z,54.18
2024-05-09T22:13:08.914Z,53.98
2024-05-09T22:15:40.706Z,53.98
2024-05-09T22:18:11.647Z,54.22
2024-05-09T22:20:45.363Z,55.63
2024-05-09T22:23:14.312Z,55.63
2024-05-09T22:25:44.276Z,54.06
2024-05-09T22:28:14.021Z,54.53
2024-05-09T22:30:43.952Z,54.51
2024-05-09T22:33:13.974Z,54.99
2024-05-09T22:35:45.175Z,54.53
2024-05-09T22:38:12.230Z,54.47
2024-05-09T22:40:47.652Z,54.71
2024-05-09T22:43:18.532Z,54.37
2024-05-09T22:45:49.204Z,54.57
2024-05-09T22:48:19.437Z,55.58
2024-05-09T22:50:49.215Z,56.29
2024-05-09T22:53:16.664Z,56.38
2024-05-09T22:55:46.396Z,55.85
2024-05-09T22:58:13.638Z,55.80
2024-05-09T23:00:43.513Z,54.60
2024-05-09T23:03:10.716Z,57.08
2024-05-09T23:05:43.135Z,56.17
2024-05-09T23:08:10.630Z,56.10
2024-05-09T23:10:40.299Z,55.84
2024-05-09T23:13:08.233Z,54.82
2024-05-09T23:15:39.091Z,55.78
2024-05-09T23:18:06.739Z,55.38
2024-05-09T23:20:39.343Z,55.87
2024-05-09T23:23:11.411Z,55.77
2024-05-09T23:25:42.190Z,55.90
2024-05-09T23:28:09.799Z,56.15
2024-05-09T23:30:41.139Z,56.40
2024-05-09T23:33:11.511Z,56.69
2024-05-09T23:35:41.416Z,57.09
2024-05-09T23:38:11.133Z,57.17
2024-05-09T23:40:42.137Z,57.37
2024-05-09T23:43:10.692Z,57.28
2024-05-09T23:45:41.319Z,57.71
2024-05-09T23:48:09.392Z,57.72
2024-05-09T23:50:40.471Z,58.15
2024-05-09T23:53:11.227Z,57.60
2024-05-09T23:55:41.140Z,57.56
2024-05-09T23:58:08.629Z,57.48
